createdAt,value
2016-09-20T00:02:07.334Z,14.1
2016-09-20T00:07:03.031Z,14.2
2016-09-20T00:12:03.675Z,14.1
2016-09-20T00:17:03.297Z,14.1
2016-09-20T00:22:03.670Z,14.2
2016-09-20T00:27:02.941Z,14.1
2016-09-20T00:32:03.701Z,14.1
2016-09-20T00:37:03.176Z,14.1
2016-09-20T00:42:02.740Z,14.0
2016-09-20T00:47:04.227Z,13.7
2016-09-20T00:52:02.970Z,13.6
2016-09-20T00:57:03.148Z,13.6
2016-09-20T01:02:02.832Z,13.5
2016-09-20T01:07:03.393Z,13.5
2016-09-20T01:12:02.933Z,13.5
2016-09-20T01:17:03.379Z,13.7
2016-09-20T01:22:03.643Z,13.7
2016-09-20T01:27:02.920Z,13.8
2016-09-20T01:32:03.327Z,13.9
2016-09-20T01:37:02.898Z,14.0
2016-09-20T01:42:03.335Z,14.1
2016-09-20T01:47:03.799Z,14.2
2016-09-20T01:52:03.632Z,14.3
2016-09-20T01:57:02.990Z,14.3
2016-09-20T02:02:03.517Z,14.4
2016-09-20T02:07:03.001Z,14.3
2016-09-20T02:12:03.541Z,14.4
2016-09-20T02:17:03.434Z,14.5
2016-09-20T02:22:03.174Z,14.5
2016-09-20T02:27:03.399Z,14.5
2016-09-20T02:32:03.251Z,14.6
2016-09-20T02:37:03.582Z,14.6
2016-09-20T02:42:02.933Z,14.6
2016-09-20T02:47:03.248Z,14.6
2016-09-20T02:52:03.508Z,14.5
2016-09-20T02:57:03.775Z,14.6
2016-09-20T03:02:03.198Z,14.6
2016-09-20T03:07:03.380Z,14.6
2016-09-20T03:12:03.764Z,14.7
2016-09-20T03:17:03.348Z,14.7
2016-09-20T03:22:03.416Z,14.7
2016-09-20T03:27:03.582Z,14.6
2016-09-20T03:32:03.648Z,14.4
2016-09-20T03:37:03.069Z,14.3
2016-09-20T03:42:03.276Z,14.4
2016-09-20T03:47:03.647Z,14.5
2016-09-20T03:52:03.746Z,14.5
2016-09-20T03:57:03.107Z,14.5
2016-09-20T04:02:03.539Z,14.6
2016-09-20T04:07:03.453Z,14.6
2016-09-20T04:12:03.177Z,14.6
2016-09-20T04:17:03.611Z,14.6
2016-09-20T04:22:03.634Z,14.7
2016-09-20T04:27:02.971Z,14.7
2016-09-20T04:32:03.200Z,14.7
2016-09-20T04:37:03.771Z,14.7
2016-09-20T04:42:03.233Z,14.8
2016-09-20T04:47:18.042Z,14.8
2016-09-20T04:52:03.082Z,14.8
2016-09-20T04:57:03.604Z,14.9
2016-09-20T05:02:17.505Z,14.9
2016-09-20T05:07:03.797Z,15.0
2016-09-20T05:12:03.445Z,15.0
2016-09-20T05:17:16.995Z,15.0
2016-09-20T05:22:03.126Z,15.0
2016-09-20T05:27:03.365Z,15.0
2016-09-20T05:32:17.507Z,14.9
2016-09-20T05:37:03.572Z,14.9
2016-09-20T05:42:03.766Z,14.6
2016-09-20T05:47:16.899Z,14.6
2016-09-20T05:52:03.310Z,14.7
2016-09-20T05:57:03.719Z,15.0
2016-09-20T06:02:17.212Z,15.1
2016-09-20T06:07:02.915Z,15.2
2016-09-20T06:12:03.202Z,15.3
2016-09-20T06:17:18.106Z,15.4
2016-09-20T06:22:03.456Z,15.4
2016-09-20T06:27:03.266Z,15.4
2016-09-20T06:32:16.803Z,15.5
2016-09-20T06:37:03.362Z,15.5
2016-09-20T06:42:03.209Z,15.6
2016-09-20T06:47:16.943Z,15.8
2016-09-20T06:52:02.807Z,15.8
2016-09-20T06:57:02.912Z,15.8
2016-09-20T07:02:16.600Z,15.9
2016-09-20T07:07:03.128Z,16.0
2016-09-20T07:12:03.427Z,16.1
2016-09-20T07:17:17.537Z,16.2
2016-09-20T07:22:03.422Z,16.3
2016-09-20T07:27:03.535Z,16.3
2016-09-20T07:32:17.408Z,16.3
2016-09-20T07:37:03.080Z,16.4
2016-09-20T07:42:03.100Z,16.4
2016-09-20T07:47:17.547Z,16.5
2016-09-20T07:52:03.673Z,16.6
2016-09-20T07:57:03.694Z,16.8
2016-09-20T08:02:16.822Z,16.8
2016-09-20T08:07:02.983Z,17.2
2016-09-20T08:12:03.440Z,17.3
2016-09-20T08:17:17.542Z,17.4
2016-09-20T08:22:03.528Z,17.3
2016-09-20T08:27:03.800Z,17.5
2016-09-20T08:32:17.887Z,18.2
2016-09-20T08:37:02.900Z,18.2
2016-09-20T08:42:03.407Z,19.0
2016-09-20T08:47:17.972Z,19.0
2016-09-20T08:52:03.055Z,19.1
2016-09-20T08:57:02.866Z,19.1
2016-09-20T09:02:17.941Z,19.0
2016-09-20T09:07:03.103Z,19.0
2016-09-20T09:12:03.534Z,19.3
2016-09-20T09:17:17.752Z,19.7
2016-09-20T09:22:03.441Z,19.6
2016-09-20T09:27:03.617Z,20.0
2016-09-20T09:32:16.812Z,20.4
2016-09-20T09:37:02.933Z,20.4
2016-09-20T09:42:03.231Z,20.6
2016-09-20T09:47:17.360Z,20.6
2016-09-20T09:52:03.165Z,20.7
2016-09-20T09:57:03.458Z,20.8
2016-09-20T10:02:17.342Z,20.8
2016-09-20T10:07:02.990Z,20.8
2016-09-20T10:12:03.251Z,20.8
2016-09-20T10:17:17.324Z,20.8
2016-09-20T10:22:03.707Z,20.9
2016-09-20T10:27:03.857Z,20.9
2016-09-20T10:32:22.162Z,20.8
2016-09-20T10:37:02.930Z,20.8
2016-09-20T10:42:03.201Z,20.9
2016-09-20T10:47:16.872Z,21.3
2016-09-20T10:52:03.155Z,21.3
2016-09-20T10:57:03.098Z,21.5
2016-09-20T11:02:17.149Z,21.5
2016-09-20T11:07:03.025Z,21.5
2016-09-20T11:12:03.375Z,21.5
2016-09-20T11:17:17.353Z,21.4
2016-09-20T11:22:02.976Z,21.4
2016-09-20T11:27:03.603Z,21.5
2016-09-20T11:32:16.616Z,21.4
2016-09-20T11:37:03.773Z,21.5
2016-09-20T11:42:03.552Z,21.7
2016-09-20T11:47:17.511Z,21.7
2016-09-20T11:52:03.359Z,21.7
2016-09-20T11:57:03.559Z,21.7
2016-09-20T12:02:17.503Z,21.6
2016-09-20T12:07:03.756Z,21.6
2016-09-20T12:12:03.574Z,21.5
2016-09-20T12:17:16.926Z,21.4
2016-09-20T12:22:03.187Z,21.2
2016-09-20T12:27:03.397Z,21.3
2016-09-20T12:32:17.389Z,21.5
2016-09-20T12:37:03.346Z,21.8
2016-09-20T12:42:03.477Z,21.8
2016-09-20T12:47:23.430Z,21.8
2016-09-20T12:52:02.914Z,21.9
2016-09-20T12:57:03.111Z,21.9
2016-09-20T13:02:16.996Z,21.7
2016-09-20T13:07:03.077Z,21.7
2016-09-20T13:12:03.490Z,21.2
2016-09-20T13:17:17.166Z,21.1
2016-09-20T13:22:03.667Z,20.5
2016-09-20T13:27:03.021Z,20.5
2016-09-20T13:32:16.978Z,19.7
2016-09-20T13:37:03.594Z,19.7
2016-09-20T13:42:03.452Z,19.7
2016-09-20T13:47:17.211Z,19.7
2016-09-20T13:52:03.704Z,20.0
2016-09-20T13:57:02.933Z,19.9
2016-09-20T20:02:03.155Z,16.3
2016-09-20T20:07:03.513Z,16.4
2016-09-20T20:12:03.031Z,16.3
2016-09-20T20:17:03.564Z,16.1
2016-09-20T20:22:03.168Z,16.0
2016-09-20T20:27:03.579Z,16.0
2016-09-20T20:32:02.930Z,16.0
2016-09-20T20:37:03.649Z,16.0
2016-09-20T20:42:03.184Z,16.0
2016-09-20T20:47:03.293Z,16.1
2016-09-20T20:52:03.402Z,16.0
2016-09-20T20:57:03.317Z,16.1
2016-09-20T21:02:03.264Z,16.1
2016-09-20T21:07:03.131Z,16.0
2016-09-20T21:12:02.930Z,16.1
2016-09-20T21:17:03.056Z,16.1
2016-09-20T21:22:03.014Z,16.1
2016-09-20T21:27:03.365Z,16.1
2016-09-20T21:32:03.227Z,16.0
2016-09-20T21:37:03.661Z,16.0
2016-09-20T21:42:03.225Z,15.9
2016-09-20T21:47:03.667Z,15.9
2016-09-20T21:52:03.609Z,15.9
2016-09-20T21:57:03.533Z,15.9
2016-09-20T22:02:03.547Z,15.6
2016-09-20T22:07:03.704Z,15.6
2016-09-20T22:12:03.772Z,15.5
2016-09-20T22:22:03.566Z,15.1
2016-09-20T22:27:02.962Z,14.9
2016-09-20T22:32:03.268Z,14.8
2016-09-20T22:37:03.408Z,14.7
2016-09-20T22:42:03.571Z,14.6
2016-09-20T22:47:03.114Z,14.4
2016-09-20T22:52:03.587Z,14.3
2016-09-20T22:57:03.073Z,14.2
2016-09-20T23:02:03.556Z,13.9
2016-09-20T23:07:02.973Z,13.9
2016-09-20T23:12:03.270Z,13.8
2016-09-20T23:17:06.879Z,13.8
2016-09-20T23:22:03.604Z,13.8
2016-09-20T23:27:02.868Z,13.6
2016-09-20T23:32:03.303Z,13.5
2016-09-20T23:37:03.512Z,13.7
2016-09-20T23:42:03.204Z,13.6
2016-09-20T23:47:03.717Z,13.6
2016-09-20T23:52:02.893Z,13.6
2016-09-20T23:57:03.423Z,13.7
